Terminal Aerodrome Forecast
Issued by NWS Mt. Holly, NJ

Home | Current Version | Previous Version | Text Only | Print | Product List | Glossary On
Versions: 1 2 3 4 5 6 7 8 9 10 11 12 13 14 15 16 17
000
FTUS41 KPHI 300534
TAFACY
TAF
KACY 300534Z 3006/3106 17005KT P6SM VCSH SCT004 OVC010
      TEMPO 3006/3010 4SM -SHRA OVC004
     FM301000 21007KT 3SM -SHRA BR OVC004
     FM301600 17005KT 2SM SHRA BR OVC007
     FM302100 20005KT 5SM -SHRA BR OVC012
     FM310100 VRB03KT 3SM BR OVC007=

USA.gov is the U.S. government's official web portal to all federal, state and local government web resources and services.